createdAt,value
2018-12-15T00:02:14.539Z,0.60
2018-12-15T00:07:07.961Z,0.60
2018-12-15T00:12:01.254Z,0.50
2018-12-15T00:16:54.551Z,0.60
2018-12-15T00:21:47.840Z,0.60
2018-12-15T00:26:41.170Z,0.40
2018-12-15T00:47:49.270Z,0.40
2018-12-15T00:52:42.552Z,0.40
2018-12-15T00:57:35.862Z,0.20
2018-12-15T01:02:29.151Z,0.10
2018-12-15T01:07:22.435Z,0.20
2018-12-15T01:12:15.771Z,0.10
2018-12-15T01:17:09.175Z,0.10
2018-12-15T01:22:02.463Z,0.10
2018-12-15T01:26:55.759Z,0.00
2018-12-15T01:48:02.802Z,0.20
2018-12-15T01:52:56.091Z,0.20
2018-12-15T01:57:49.380Z,0.20
2018-12-15T02:02:42.658Z,0.10
2018-12-15T02:07:36.014Z,0.10
2018-12-15T02:12:29.298Z,0.20
2018-12-15T02:17:22.566Z,0.10
2018-12-15T02:22:15.892Z,0.00
2018-12-15T02:27:09.321Z,0.20
2018-12-15T02:48:17.244Z,-0.10
2018-12-15T02:53:10.547Z,-0.20
2018-12-15T02:58:03.890Z,-0.20
2018-12-15T03:02:57.340Z,-0.20
2018-12-15T03:07:50.631Z,-0.20
2018-12-15T03:12:43.934Z,-0.40
2018-12-15T03:17:37.211Z,-0.30
2018-12-15T03:22:30.486Z,-0.40
2018-12-15T03:27:23.959Z,-0.30
2018-12-15T03:48:31.379Z,-0.40
2018-12-15T03:53:24.701Z,-0.50
2018-12-15T03:58:18.004Z,-0.50
2018-12-15T04:03:11.299Z,-0.60
2018-12-15T04:08:04.655Z,-0.50
2018-12-15T04:12:58.105Z,-0.50
2018-12-15T04:17:51.412Z,-0.50
2018-12-15T04:22:44.725Z,-0.40
2018-12-15T04:27:38.212Z,-0.40
2018-12-15T04:48:45.811Z,-0.40
2018-12-15T04:53:39.088Z,-0.40
2018-12-15T04:58:32.368Z,-0.30
2018-12-15T05:03:25.668Z,-0.20
2018-12-15T05:08:18.961Z,-0.30
2018-12-15T05:13:12.254Z,-0.30
2018-12-15T05:18:05.543Z,-0.40
2018-12-15T05:22:58.937Z,-0.30
2018-12-15T05:27:52.225Z,-0.30
2018-12-15T05:48:59.753Z,-0.10
2018-12-15T05:53:53.036Z,-0.20
2018-12-15T05:58:46.325Z,-0.10
2018-12-15T06:03:39.628Z,0.00
2018-12-15T06:08:32.918Z,0.00
2018-12-15T06:13:26.221Z,0.00
2018-12-15T06:18:19.528Z,0.00
2018-12-15T06:23:12.865Z,0.00
2018-12-15T06:28:06.167Z,0.10
2018-12-15T06:49:13.898Z,0.30
2018-12-15T06:54:07.182Z,0.30
2018-12-15T06:59:00.459Z,0.30
2018-12-15T07:03:53.746Z,0.40
2018-12-15T07:08:47.049Z,0.60
2018-12-15T07:13:40.430Z,0.60
2018-12-15T07:18:33.735Z,0.50
2018-12-15T07:23:27.015Z,0.30
2018-12-15T07:28:20.373Z,0.20
2018-12-15T07:49:28.712Z,0.30
2018-12-15T07:54:22.006Z,0.50
2018-12-15T07:59:15.332Z,0.50
2018-12-15T08:04:08.611Z,0.40
2018-12-15T08:09:01.960Z,0.20
2018-12-15T08:19:08.094Z,0.30
2018-12-15T08:24:01.388Z,0.40
2018-12-15T08:28:54.667Z,0.50
2018-12-15T08:33:47.970Z,0.50
2018-12-15T08:54:55.206Z,0.60
2018-12-15T08:59:48.498Z,0.80
2018-12-15T09:04:41.861Z,0.50
2018-12-15T09:09:35.163Z,0.60
2018-12-15T09:14:28.670Z,0.60
2018-12-15T09:19:22.018Z,0.40
2018-12-15T09:24:15.391Z,0.40
2018-12-15T09:29:08.848Z,0.50
2018-12-15T09:50:16.037Z,0.60
2018-12-15T09:55:09.408Z,0.50
2018-12-15T10:00:02.814Z,0.60
2018-12-15T10:04:56.163Z,0.70
2018-12-15T10:09:49.470Z,0.80
2018-12-15T10:14:42.747Z,0.60
2018-12-15T10:19:36.071Z,0.70
2018-12-15T10:24:29.335Z,0.50
2018-12-15T10:34:51.822Z,0.90
2018-12-15T10:39:45.125Z,0.90
2018-12-15T10:44:38.424Z,0.90
2018-12-15T10:49:31.756Z,1.00
2018-12-15T11:10:39.636Z,0.50
2018-12-15T11:15:32.976Z,0.70
2018-12-15T11:20:26.355Z,0.70
2018-12-15T11:25:19.736Z,1.00
2018-12-15T11:30:13.011Z,1.20
2018-12-15T11:51:21.128Z,1.00
2018-12-15T12:01:22.579Z,1.10
2018-12-15T12:06:16.022Z,1.10
2018-12-15T12:11:09.332Z,1.30
2018-12-15T12:16:02.775Z,1.40
2018-12-15T12:37:10.551Z,1.20
2018-12-15T12:42:03.843Z,1.00
2018-12-15T12:46:57.163Z,1.10
2018-12-15T12:51:50.460Z,1.10
2018-12-15T12:56:44.065Z,1.10
2018-12-15T13:01:37.361Z,1.10
2018-12-15T13:06:30.643Z,1.10
2018-12-15T13:11:23.931Z,1.20
2018-12-15T13:16:17.260Z,0.90
2018-12-15T13:37:24.486Z,0.60
2018-12-15T13:42:17.871Z,0.60
2018-12-15T13:47:11.255Z,0.60
2018-12-15T13:52:04.958Z,0.50
2018-12-15T13:56:58.249Z,0.50
2018-12-15T14:01:51.522Z,0.40
2018-12-15T14:06:44.819Z,0.50
2018-12-15T14:11:38.159Z,0.60
2018-12-15T14:16:31.467Z,0.70
2018-12-15T14:21:24.819Z,0.70
2018-12-15T14:42:31.945Z,1.00
2018-12-15T14:47:25.276Z,1.00
2018-12-15T14:52:18.614Z,0.90
2018-12-15T14:57:11.987Z,1.00
2018-12-15T15:02:05.479Z,0.90
2018-12-15T15:23:13.249Z,0.90
2018-12-15T15:28:06.620Z,0.80
2018-12-15T15:32:59.926Z,0.60
2018-12-15T15:37:53.202Z,0.60
2018-12-15T15:42:46.484Z,0.50
2018-12-15T15:58:30.001Z,0.20
2018-12-15T16:03:23.273Z,0.00
2018-12-15T16:08:16.562Z,-0.10
2018-12-15T16:13:09.867Z,-0.10
2018-12-15T16:34:17.509Z,-0.40
2018-12-15T16:39:10.820Z,-0.40
2018-12-15T16:44:04.330Z,-0.40
2018-12-15T16:48:57.623Z,-0.40
2018-12-15T16:53:50.902Z,-0.40
2018-12-15T16:58:44.193Z,-0.40
2018-12-15T17:03:37.500Z,-0.50
2018-12-15T17:08:30.841Z,-0.40
2018-12-15T17:13:24.139Z,-0.50
2018-12-15T17:34:31.719Z,-0.60
2018-12-15T17:39:25.354Z,-0.50
2018-12-15T17:44:18.661Z,-0.60
2018-12-15T17:49:11.953Z,-0.60
2018-12-15T17:54:05.247Z,-0.60
2018-12-15T17:58:58.538Z,-0.80
2018-12-15T18:03:51.941Z,-0.70
2018-12-15T18:08:45.230Z,-0.80
2018-12-15T18:13:38.569Z,-0.80
2018-12-15T18:34:46.524Z,-1.40
2018-12-15T18:39:39.822Z,-1.40
2018-12-15T18:44:33.126Z,-1.30
2018-12-15T18:49:26.469Z,-1.30
2018-12-15T18:54:19.783Z,-1.40
2018-12-15T18:59:13.282Z,-1.50
2018-12-15T19:04:06.637Z,-1.50
2018-12-15T19:09:03.985Z,-1.40
2018-12-15T19:13:55.243Z,-1.40
2018-12-15T19:35:03.593Z,-1.50
2018-12-15T19:39:56.906Z,-1.70
2018-12-15T19:44:50.257Z,-1.70
2018-12-15T19:49:43.553Z,-1.80
2018-12-15T19:54:36.910Z,-1.60
2018-12-15T19:59:30.217Z,-1.60
2018-12-15T20:04:23.499Z,-1.70
2018-12-15T20:09:16.791Z,-1.80
2018-12-15T20:14:10.091Z,-1.90
2018-12-15T20:35:18.246Z,-1.80
2018-12-15T20:40:11.683Z,-1.90
2018-12-15T20:45:05.952Z,-1.90
2018-12-15T20:49:59.271Z,-2.10
2018-12-15T20:54:52.592Z,-1.90
2018-12-15T20:59:45.890Z,-2.10
2018-12-15T21:04:39.197Z,-2.20
2018-12-15T21:09:32.468Z,-2.20
2018-12-15T21:14:25.772Z,-2.30
2018-12-15T21:35:33.665Z,-2.30
2018-12-15T21:40:27.021Z,-2.20
2018-12-15T21:45:20.416Z,-2.00
2018-12-15T21:50:13.745Z,-2.00
2018-12-15T21:55:07.180Z,-1.90
2018-12-15T22:00:00.490Z,-1.90
2018-12-15T22:04:53.826Z,-1.70
2018-12-15T22:09:47.130Z,-1.60
2018-12-15T22:14:40.502Z,-1.50
2018-12-15T22:35:48.855Z,-1.30
2018-12-15T22:40:42.159Z,-1.30
2018-12-15T22:45:35.438Z,-1.30
2018-12-15T22:50:28.763Z,-1.30
2018-12-15T22:55:22.152Z,-1.20
2018-12-15T23:00:15.627Z,-1.20
2018-12-15T23:05:09.045Z,-1.20
2018-12-15T23:10:02.400Z,-1.20
2018-12-15T23:14:55.704Z,-1.30
2018-12-15T23:36:03.516Z,-1.10
2018-12-15T23:40:56.867Z,-1.00
2018-12-15T23:45:50.154Z,-1.00
2018-12-15T23:50:43.503Z,-0.90
2018-12-15T23:55:36.798Z,-0.90
